PWSweather.com
Personal Weather Stations
Station Observations
KMAMEDFI2
Medfield, MA 02052

Medfield, MA 02052

Lat: 42.1900822, Lon: -71.3296889

Elevation: 138

Station Type: Rainwise WS MK-III

http://www.medfieldweather.com

Latest ConditionsUpdated 7:30:00 PM EDT Friday, Jul 3, 2015
Currently Today's Max Today's Min Today's Average
Temperature 70.7°F21.5°C 81.2°F27.3°C 55.8°F13.2°C 69.4°F20.8°C
Dew Point 63.1°F17.3°C 65.8°F18.8°C -40.4°F-40.2°C 30.4°F-0.9°C
Winds Calm Calm 4.3 mph WSW6.9 kmh WSW - 1.3 mph 2.1 kmh
Wind Gusts -- 8.4 mph13.5 kmh - -
Humidity 77% 98% 1% 38%
Pressure 29.99 in1015.6 mb 30.00 in1015.9 mb 29.86 in1011.2 mb -
Hour Temp Dew Point Humidity Winds Wind Gusts Pressure Precip Precip Rate Daily Precip Total
07:30 PM 70.7°F21.5°C 63.1°F17.3°C 77% Calm Calm -- 29.99 in1015.6 mb - 0.00 in0.0 mm 0.00 in0.0 mm
07:20 PM 71.5°F21.9°C 62.0°F16.7°C 72% Calm Calm -- 29.99 in1015.6 mb - 0.00 in0.0 mm 0.00 in0.0 mm
07:10 PM 72.6°F22.6°C 64.2°F17.9°C 75% 0.2 mph NNW0.3 kmh NNW 1.4 mph2.3 kmh 29.99 in1015.6 mb - 0.00 in0.0 mm 0.00 in0.0 mm
07:00 PM 73.8°F23.2°C 61.7°F16.5°C 66% 0.7 mph NNW1.1 kmh NNW 1.4 mph2.3 kmh 29.99 in1015.6 mb - 0.00 in0.0 mm 0.00 in0.0 mm
06:50 PM 75.0°F23.9°C 62.0°F16.7°C 64% Calm Calm -- 29.99 in1015.6 mb - 0.00 in0.0 mm 0.00 in0.0 mm
06:40 PM 75.8°F24.3°C 54.8°F12.7°C 48% 0.9 mph ENE1.4 kmh ENE 2.8 mph4.5 kmh 29.98 in1015.2 mb - 0.00 in0.0 mm 0.00 in0.0 mm
06:30 PM 75.9°F24.4°C 57.0°F13.9°C 52% 1.8 mph WSW2.9 kmh WSW 2.8 mph4.5 kmh 29.99 in1015.6 mb - 0.00 in0.0 mm 0.00 in0.0 mm
06:20 PM 76.1°F24.5°C 54.4°F12.4°C 47% 1.0 mph SW1.6 kmh SW 5.6 mph9.0 kmh 29.99 in1015.6 mb - 0.00 in0.0 mm 0.00 in0.0 mm
06:10 PM 76.4°F24.7°C 52.9°F11.6°C 44% 2.0 mph NNW3.2 kmh NNW 2.8 mph4.5 kmh 29.99 in1015.6 mb - 0.00 in0.0 mm 0.00 in0.0 mm
06:00 PM 76.6°F24.8°C 54.8°F12.7°C 47% 2.0 mph WSW3.2 kmh WSW 2.8 mph4.5 kmh 29.99 in1015.6 mb - 0.00 in0.0 mm 0.00 in0.0 mm
05:50 PM 76.9°F24.9°C 53.9°F12.2°C 45% 2.1 mph WSW3.4 kmh WSW 4.2 mph6.8 kmh 29.99 in1015.6 mb - 0.00 in0.0 mm 0.00 in0.0 mm
05:40 PM 77.4°F25.2°C 55.6°F13.1°C 47% 3.0 mph WSW4.8 kmh WSW 2.8 mph4.5 kmh 29.99 in1015.6 mb - 0.00 in0.0 mm 0.00 in0.0 mm
05:30 PM 78.0°F25.6°C 53.1°F11.7°C 42% 0.6 mph ENE1.0 kmh ENE 1.4 mph2.3 kmh 29.99 in1015.6 mb - 0.00 in0.0 mm 0.00 in0.0 mm
05:20 PM 78.8°F26.0°C 53.8°F12.1°C 42% 0.7 mph WSW1.1 kmh WSW 2.8 mph4.5 kmh 30.00 in1015.9 mb - 0.00 in0.0 mm 0.00 in0.0 mm
05:10 PM 80.2°F26.8°C 54.3°F12.4°C 41% 1.9 mph WSW3.1 kmh WSW 7.0 mph11.3 kmh 30.00 in1015.9 mb - 0.00 in0.0 mm 0.00 in0.0 mm
05:00 PM 80.1°F26.7°C 54.3°F12.4°C 41% 2.5 mph WSW4.0 kmh WSW 2.8 mph4.5 kmh 30.00 in1015.9 mb - 0.00 in0.0 mm 0.00 in0.0 mm
04:50 PM 80.8°F27.1°C 54.9°F12.7°C 41% 2.6 mph N4.2 kmh N 4.2 mph6.8 kmh 30.00 in1015.9 mb - 0.00 in0.0 mm 0.00 in0.0 mm
04:40 PM 80.7°F27.1°C 54.1°F12.3°C 40% 2.4 mph WNW3.9 kmh WNW 2.8 mph4.5 kmh 30.00 in1015.9 mb - 0.00 in0.0 mm 0.00 in0.0 mm
04:30 PM 80.9°F27.2°C 53.6°F12.0°C 39% 2.8 mph SSE4.5 kmh SSE 2.8 mph4.5 kmh 30.00 in1015.9 mb - 0.00 in0.0 mm 0.00 in0.0 mm
04:20 PM 81.1°F27.3°C 55.8°F13.2°C 42% 2.7 mph WSW4.3 kmh WSW 2.8 mph4.5 kmh 30.00 in1015.9 mb - 0.00 in0.0 mm 0.00 in0.0 mm
04:10 PM 80.9°F27.2°C 52.2°F11.2°C 37% 2.9 mph NW4.7 kmh NW 2.8 mph4.5 kmh 30.00 in1015.9 mb - 0.00 in0.0 mm 0.00 in0.0 mm
04:00 PM 81.2°F27.3°C 54.6°F12.6°C 40% 1.5 mph S2.4 kmh S 4.2 mph6.8 kmh 30.00 in1015.9 mb - 0.00 in0.0 mm 0.00 in0.0 mm
03:50 PM 80.7°F27.1°C 54.8°F12.7°C 41% 2.1 mph SSW3.4 kmh SSW 2.8 mph4.5 kmh 30.00 in1015.9 mb - 0.00 in0.0 mm 0.00 in0.0 mm
03:40 PM 80.3°F26.8°C 53.1°F11.7°C 39% 3.6 mph NNW5.8 kmh NNW 4.2 mph6.8 kmh 30.00 in1015.9 mb - 0.00 in0.0 mm 0.00 in0.0 mm
03:30 PM 80.8°F27.1°C 55.6°F13.1°C 42% 4.3 mph WSW6.9 kmh WSW 4.2 mph6.8 kmh 30.00 in1015.9 mb - 0.00 in0.0 mm 0.00 in0.0 mm
03:20 PM 80.0°F26.7°C 54.8°F12.7°C 42% 2.5 mph SSE4.0 kmh SSE 2.8 mph4.5 kmh 30.00 in1015.9 mb - 0.00 in0.0 mm 0.00 in0.0 mm
03:10 PM 80.2°F26.8°C 54.4°F12.4°C 41% 3.0 mph SW4.8 kmh SW 5.6 mph9.0 kmh 30.00 in1015.9 mb - 0.00 in0.0 mm 0.00 in0.0 mm
03:00 PM 79.3°F26.3°C 54.3°F12.4°C 42% 2.9 mph NW4.7 kmh NW 4.2 mph6.8 kmh 30.00 in1015.9 mb - 0.00 in0.0 mm 0.00 in0.0 mm
02:50 PM 79.4°F26.3°C 56.8°F13.8°C 46% 2.1 mph N3.4 kmh N 2.8 mph4.5 kmh 30.00 in1015.9 mb - 0.00 in0.0 mm 0.00 in0.0 mm
02:40 PM 78.7°F25.9°C 54.9°F12.7°C 44% 1.0 mph NNW1.6 kmh NNW 2.8 mph4.5 kmh 30.00 in1015.9 mb - 0.00 in0.0 mm 0.00 in0.0 mm
02:30 PM 78.9°F26.1°C 53.2°F11.8°C 41% 3.4 mph WNW5.5 kmh WNW 8.4 mph13.5 kmh 30.00 in1015.9 mb - 0.00 in0.0 mm 0.00 in0.0 mm
02:20 PM 79.4°F26.3°C 56.9°F13.8°C 46% 1.0 mph NE1.6 kmh NE 2.8 mph4.5 kmh 30.00 in1015.9 mb - 0.00 in0.0 mm 0.00 in0.0 mm
02:10 PM 78.6°F25.9°C 54.2°F12.3°C 43% 2.2 mph NE3.5 kmh NE 5.6 mph9.0 kmh 30.00 in1015.9 mb - 0.00 in0.0 mm 0.00 in0.0 mm
02:00 PM 78.7°F25.9°C 53.7°F12.1°C 42% 2.2 mph NE3.5 kmh NE 2.8 mph4.5 kmh 30.00 in1015.9 mb - 0.00 in0.0 mm 0.00 in0.0 mm
01:50 PM 78.6°F25.9°C 55.5°F13.1°C 45% 2.4 mph N3.9 kmh N 4.2 mph6.8 kmh 30.00 in1015.9 mb - 0.00 in0.0 mm 0.00 in0.0 mm
01:40 PM 78.2°F25.7°C 54.5°F12.5°C 44% 2.2 mph SW3.5 kmh SW 5.6 mph9.0 kmh 30.00 in1015.9 mb - 0.00 in0.0 mm 0.00 in0.0 mm
01:30 PM 78.3°F25.7°C 55.8°F13.2°C 46% 0.8 mph NE1.3 kmh NE 2.8 mph4.5 kmh 30.00 in1015.9 mb - 0.00 in0.0 mm 0.00 in0.0 mm
01:20 PM 77.2°F25.1°C 53.6°F12.0°C 44% 3.2 mph SW5.1 kmh SW 5.6 mph9.0 kmh 30.00 in1015.9 mb - 0.00 in0.0 mm 0.00 in0.0 mm
01:10 PM 77.2°F25.1°C 53.6°F12.0°C 44% 2.7 mph WSW4.3 kmh WSW 4.2 mph6.8 kmh 30.00 in1015.9 mb - 0.00 in0.0 mm 0.00 in0.0 mm
01:00 PM 77.3°F25.2°C 53.7°F12.1°C 44% 2.6 mph NNW4.2 kmh NNW 2.8 mph4.5 kmh 30.00 in1015.9 mb - 0.00 in0.0 mm 0.00 in0.0 mm
12:50 PM 78.0°F25.6°C 54.9°F12.7°C 45% 1.5 mph S2.4 kmh S 2.8 mph4.5 kmh 30.00 in1015.9 mb - 0.00 in0.0 mm 0.00 in0.0 mm
12:40 PM 77.6°F25.3°C 55.1°F12.8°C 46% 3.3 mph NNW5.3 kmh NNW 4.2 mph6.8 kmh 30.00 in1015.9 mb - 0.00 in0.0 mm 0.00 in0.0 mm
12:30 PM 77.7°F25.4°C 53.5°F11.9°C 43% 1.8 mph NNW2.9 kmh NNW 2.8 mph4.5 kmh 30.00 in1015.9 mb - 0.00 in0.0 mm 0.00 in0.0 mm
12:20 PM 77.1°F25.1°C 55.9°F13.3°C 48% 0.9 mph WSW1.4 kmh WSW 4.2 mph6.8 kmh 30.00 in1015.9 mb - 0.00 in0.0 mm 0.00 in0.0 mm
12:10 PM 75.9°F24.4°C 55.9°F13.3°C 50% 1.1 mph N1.8 kmh N 4.2 mph6.8 kmh 30.00 in1015.9 mb - 0.00 in0.0 mm 0.00 in0.0 mm
12:00 PM 76.1°F24.5°C 54.4°F12.4°C 47% 2.7 mph E4.3 kmh E 2.8 mph4.5 kmh 30.00 in1015.9 mb - 0.00 in0.0 mm 0.00 in0.0 mm
11:50 AM 76.2°F24.6°C 56.2°F13.4°C 50% 2.0 mph ENE3.2 kmh ENE 5.6 mph9.0 kmh 30.00 in1015.9 mb - 0.00 in0.0 mm 0.00 in0.0 mm
11:40 AM 75.8°F24.3°C 51.7°F10.9°C 43% 2.3 mph E3.7 kmh E 5.6 mph9.0 kmh 30.00 in1015.9 mb - 0.00 in0.0 mm 0.00 in0.0 mm
11:30 AM 75.4°F24.1°C 53.8°F12.1°C 47% 1.7 mph WSW2.7 kmh WSW 2.8 mph4.5 kmh 30.00 in1015.9 mb - 0.00 in0.0 mm 0.00 in0.0 mm
11:20 AM 75.2°F24.0°C 53.6°F12.0°C 47% 3.2 mph WSW5.1 kmh WSW 4.2 mph6.8 kmh 30.00 in1015.9 mb - 0.00 in0.0 mm 0.00 in0.0 mm
11:10 AM 75.4°F24.1°C 52.6°F11.4°C 45% 3.6 mph SW5.8 kmh SW 8.4 mph13.5 kmh 30.00 in1015.9 mb - 0.00 in0.0 mm 0.00 in0.0 mm
11:00 AM 75.8°F24.3°C 53.0°F11.7°C 45% 1.1 mph S1.8 kmh S 2.8 mph4.5 kmh 30.00 in1015.9 mb - 0.00 in0.0 mm 0.00 in0.0 mm
10:50 AM 75.0°F23.9°C 54.0°F12.2°C 48% 1.6 mph SW2.6 kmh SW 4.2 mph6.8 kmh 30.00 in1015.9 mb - 0.00 in0.0 mm 0.00 in0.0 mm
10:40 AM 74.9°F23.8°C 53.3°F11.8°C 47% 2.2 mph SE3.5 kmh SE 2.8 mph4.5 kmh 30.00 in1015.9 mb - 0.00 in0.0 mm 0.00 in0.0 mm
10:30 AM 74.5°F23.6°C 53.0°F11.7°C 47% 3.1 mph E5.0 kmh E 8.4 mph13.5 kmh 30.00 in1015.9 mb - 0.00 in0.0 mm 0.00 in0.0 mm
10:20 AM 74.2°F23.4°C 54.9°F12.7°C 51% 2.4 mph ESE3.9 kmh ESE 2.8 mph4.5 kmh 30.00 in1015.9 mb - 0.00 in0.0 mm 0.00 in0.0 mm
10:10 AM 73.5°F23.1°C 53.7°F12.1°C 50% 4.1 mph E6.6 kmh E 8.4 mph13.5 kmh 30.00 in1015.9 mb - 0.00 in0.0 mm 0.00 in0.0 mm
10:00 AM 73.0°F22.8°C 56.3°F13.5°C 56% 1.5 mph WSW2.4 kmh WSW 2.8 mph4.5 kmh 30.00 in1015.9 mb - 0.00 in0.0 mm 0.00 in0.0 mm
09:50 AM 72.8°F22.7°C 53.1°F11.7°C 50% 2.9 mph ESE4.7 kmh ESE 2.8 mph4.5 kmh 29.99 in1015.6 mb - 0.00 in0.0 mm 0.00 in0.0 mm
09:40 AM 71.6°F22.0°C 54.6°F12.6°C 55% 3.2 mph E5.1 kmh E 5.6 mph9.0 kmh 29.99 in1015.6 mb - 0.00 in0.0 mm 0.00 in0.0 mm
09:30 AM 71.4°F21.9°C 54.9°F12.7°C 56% 4.1 mph NNE6.6 kmh NNE 2.8 mph4.5 kmh 29.99 in1015.6 mb - 0.00 in0.0 mm 0.00 in0.0 mm
09:20 AM 71.2°F21.8°C 56.1°F13.4°C 59% 3.2 mph SE5.1 kmh SE 5.6 mph9.0 kmh 29.99 in1015.6 mb - 0.00 in0.0 mm 0.00 in0.0 mm
09:10 AM 70.4°F21.3°C 56.7°F13.7°C 62% 2.0 mph SSE3.2 kmh SSE 4.2 mph6.8 kmh 29.98 in1015.2 mb - 0.00 in0.0 mm 0.00 in0.0 mm
09:00 AM 69.9°F21.1°C 57.6°F14.2°C 65% 0.6 mph S1.0 kmh S 1.4 mph2.3 kmh 29.98 in1015.2 mb - 0.00 in0.0 mm 0.00 in0.0 mm
08:50 AM 69.6°F20.9°C 57.8°F14.3°C 66% 1.3 mph WSW2.1 kmh WSW 2.8 mph4.5 kmh 29.98 in1015.2 mb - 0.00 in0.0 mm 0.00 in0.0 mm
08:40 AM 69.5°F20.8°C 60.5°F15.8°C 73% 0.8 mph SE1.3 kmh SE 2.8 mph4.5 kmh 29.97 in1014.9 mb - 0.00 in0.0 mm 0.00 in0.0 mm
08:30 AM 68.9°F20.5°C 60.3°F15.7°C 74% 1.4 mph NE2.3 kmh NE 2.8 mph4.5 kmh 29.97 in1014.9 mb - 0.00 in0.0 mm 0.00 in0.0 mm
08:20 AM 68.7°F20.4°C 65.7°F18.7°C 90% 0.6 mph ESE1.0 kmh ESE 2.8 mph4.5 kmh 29.96 in1014.6 mb - 0.00 in0.0 mm 0.00 in0.0 mm
08:10 AM 67.6°F19.8°C 65.5°F18.6°C 93% 1.0 mph WNW1.6 kmh WNW 2.8 mph4.5 kmh 29.96 in1014.6 mb - 0.00 in0.0 mm 0.00 in0.0 mm
08:00 AM 66.7°F19.3°C 65.8°F18.8°C 97% 0.8 mph N1.3 kmh N 2.8 mph4.5 kmh 29.95 in1014.2 mb - 0.00 in0.0 mm 0.00 in0.0 mm
07:50 AM 64.9°F18.3°C 64.4°F18.0°C 98% 0.5 mph N0.8 kmh N 1.4 mph2.3 kmh 29.94 in1013.9 mb - 0.00 in0.0 mm 0.00 in0.0 mm
07:40 AM 63.6°F17.6°C 63.0°F17.2°C 98% 1.4 mph NNW2.3 kmh NNW 2.8 mph4.5 kmh 29.93 in1013.5 mb - 0.00 in0.0 mm 0.00 in0.0 mm
07:30 AM 61.9°F16.6°C 61.4°F16.3°C 98% 1.2 mph NNW1.9 kmh NNW 2.8 mph4.5 kmh 29.93 in1013.5 mb - 0.00 in0.0 mm 0.00 in0.0 mm
07:20 AM 59.9°F15.5°C 57.3°F14.1°C 91% 0.1 mph NNE0.2 kmh NNE 1.4 mph2.3 kmh 29.92 in1013.2 mb - 0.00 in0.0 mm 0.00 in0.0 mm
07:10 AM 58.6°F14.8°C 49.6°F9.8°C 72% Calm Calm -- 29.92 in1013.2 mb - 0.00 in0.0 mm 0.00 in0.0 mm
07:00 AM 57.9°F14.4°C 45.8°F7.7°C 64% Calm Calm -- 29.91 in1012.9 mb - 0.00 in0.0 mm 0.00 in0.0 mm
06:50 AM 57.7°F14.3°C 42.6°F5.9°C 57% Calm Calm -- 29.90 in1012.5 mb - 0.00 in0.0 mm 0.00 in0.0 mm
06:40 AM 57.4°F14.1°C 40.4°F4.7°C 53% 0.3 mph W0.5 kmh W -- 29.90 in1012.5 mb - 0.00 in0.0 mm 0.00 in0.0 mm
06:30 AM 57.0°F13.9°C 35.8°F2.1°C 45% 0.4 mph NW0.6 kmh NW 4.2 mph6.8 kmh 29.90 in1012.5 mb - 0.00 in0.0 mm 0.00 in0.0 mm
06:20 AM 56.7°F13.7°C 30.7°F-0.7°C 37% 0.2 mph SW0.3 kmh SW 2.8 mph4.5 kmh 29.90 in1012.5 mb - 0.00 in0.0 mm 0.00 in0.0 mm
06:10 AM 56.3°F13.5°C 19.0°F-7.2°C 23% 0.6 mph WSW1.0 kmh WSW -- 29.89 in1012.2 mb - 0.00 in0.0 mm 0.00 in0.0 mm
06:00 AM 55.8°F13.2°C 7.2°F-13.8°C 14% Calm Calm -- 29.89 in1012.2 mb - 0.00 in0.0 mm 0.00 in0.0 mm
05:50 AM 56.0°F13.3°C 18.7°F-7.4°C 23% Calm Calm -- 29.89 in1012.2 mb - 0.00 in0.0 mm 0.00 in0.0 mm
05:40 AM 56.6°F13.7°C 15.9°F-8.9°C 20% Calm Calm -- 29.88 in1011.9 mb - 0.00 in0.0 mm 0.00 in0.0 mm
05:30 AM 56.6°F13.7°C 13.5°F-10.3°C 18% Calm Calm 1.4 mph2.3 kmh 29.88 in1011.9 mb - 0.00 in0.0 mm 0.00 in0.0 mm
05:20 AM 56.9°F13.8°C 16.2°F-8.8°C 20% 0.2 mph NNW0.3 kmh NNW -- 29.88 in1011.9 mb - 0.00 in0.0 mm 0.00 in0.0 mm
05:10 AM 57.4°F14.1°C 16.6°F-8.6°C 20% Calm Calm -- 29.88 in1011.9 mb - 0.00 in0.0 mm 0.00 in0.0 mm
05:00 AM 57.7°F14.3°C 14.4°F-9.8°C 18% 0.1 mph NNW0.2 kmh NNW -- 29.87 in1011.5 mb - 0.00 in0.0 mm 0.00 in0.0 mm
04:50 AM 57.9°F14.4°C 5.5°F-14.7°C 12% 0.8 mph WSW1.3 kmh WSW 2.8 mph4.5 kmh 29.87 in1011.5 mb - 0.00 in0.0 mm 0.00 in0.0 mm
04:40 AM 57.9°F14.4°C -12.8°F-24.9°C 5% 0.4 mph SW0.6 kmh SW 1.4 mph2.3 kmh 29.87 in1011.5 mb - 0.00 in0.0 mm 0.00 in0.0 mm
04:30 AM 57.9°F14.4°C -30.3°F-34.6°C 2% 0.9 mph SW1.4 kmh SW 2.8 mph4.5 kmh 29.87 in1011.5 mb - 0.00 in0.0 mm 0.00 in0.0 mm
04:20 AM 57.9°F14.4°C -30.3°F-34.6°C 2% 0.5 mph W0.8 kmh W 2.8 mph4.5 kmh 29.87 in1011.5 mb - 0.00 in0.0 mm 0.00 in0.0 mm
04:10 AM 57.9°F14.4°C -30.4°F-34.7°C 2% Calm Calm -- 29.87 in1011.5 mb - 0.00 in0.0 mm 0.00 in0.0 mm
04:00 AM 57.8°F14.3°C -30.4°F-34.7°C 2% Calm Calm -- 29.87 in1011.5 mb - 0.00 in0.0 mm 0.00 in0.0 mm
03:50 AM 58.1°F14.5°C -30.3°F-34.6°C 2% Calm Calm 1.4 mph2.3 kmh 29.87 in1011.5 mb - 0.00 in0.0 mm 0.00 in0.0 mm
03:40 AM 58.5°F14.7°C -30.0°F-34.4°C 2% Calm Calm -- 29.87 in1011.5 mb - 0.00 in0.0 mm 0.00 in0.0 mm
03:30 AM 58.6°F14.8°C -29.9°F-34.4°C 2% Calm Calm -- 29.87 in1011.5 mb - 0.00 in0.0 mm 0.00 in0.0 mm
03:20 AM 58.9°F14.9°C -29.7°F-34.3°C 2% Calm Calm -- 29.86 in1011.2 mb - 0.00 in0.0 mm 0.00 in0.0 mm
03:10 AM 59.2°F15.1°C -29.5°F-34.2°C 2% Calm Calm -- 29.86 in1011.2 mb - 0.00 in0.0 mm 0.00 in0.0 mm
03:00 AM 59.4°F15.2°C -29.4°F-34.1°C 2% Calm Calm -- 29.86 in1011.2 mb - 0.00 in0.0 mm 0.00 in0.0 mm
02:50 AM 59.6°F15.3°C -21.6°F-29.8°C 3% Calm Calm -- 29.86 in1011.2 mb - 0.00 in0.0 mm 0.00 in0.0 mm
02:40 AM 60.1°F15.6°C -7.5°F-21.9°C 6% Calm Calm -- 29.87 in1011.5 mb - 0.00 in0.0 mm 0.00 in0.0 mm
02:30 AM 60.8°F16.0°C -20.8°F-29.3°C 3% Calm Calm -- 29.87 in1011.5 mb - 0.00 in0.0 mm 0.00 in0.0 mm
02:20 AM 61.5°F16.4°C -40.4°F-40.2°C 1% Calm Calm -- 29.87 in1011.5 mb - 0.00 in0.0 mm 0.00 in0.0 mm
02:10 AM 61.7°F16.5°C -40.2°F-40.1°C 1% Calm Calm -- 29.87 in1011.5 mb - 0.00 in0.0 mm 0.00 in0.0 mm
02:00 AM 61.9°F16.6°C -40.1°F-40.1°C 1% Calm Calm -- 29.87 in1011.5 mb - 0.00 in0.0 mm 0.00 in0.0 mm
01:50 AM 62.1°F16.7°C -40.0°F-40.0°C 1% Calm Calm -- 29.87 in1011.5 mb - 0.00 in0.0 mm 0.00 in0.0 mm
01:40 AM 61.9°F16.6°C -40.1°F-40.1°C 1% Calm Calm -- 29.87 in1011.5 mb - 0.00 in0.0 mm 0.00 in0.0 mm
01:30 AM 62.1°F16.7°C -40.0°F-40.0°C 1% Calm Calm -- 29.87 in1011.5 mb - 0.00 in0.0 mm 0.00 in0.0 mm
01:20 AM 62.3°F16.8°C -39.9°F-39.9°C 1% Calm Calm -- 29.87 in1011.5 mb - 0.00 in0.0 mm 0.00 in0.0 mm
01:10 AM 62.6°F17.0°C -39.7°F-39.8°C 1% Calm Calm -- 29.87 in1011.5 mb - 0.00 in0.0 mm 0.00 in0.0 mm
01:00 AM 62.9°F17.2°C -39.5°F-39.7°C 1% Calm Calm -- 29.87 in1011.5 mb - 0.00 in0.0 mm 0.00 in0.0 mm
12:50 AM 62.9°F17.2°C -39.5°F-39.7°C 1% Calm Calm -- 29.87 in1011.5 mb - 0.00 in0.0 mm 0.00 in0.0 mm
12:40 AM 63.2°F17.3°C -39.3°F-39.6°C 1% Calm Calm -- 29.87 in1011.5 mb - 0.00 in0.0 mm 0.00 in0.0 mm
12:30 AM 63.5°F17.5°C -39.1°F-39.5°C 1% Calm Calm -- 29.87 in1011.5 mb - 0.00 in0.0 mm 0.00 in0.0 mm
12:20 AM 63.5°F17.5°C -39.1°F-39.5°C 1% Calm Calm -- 29.87 in1011.5 mb - 0.00 in0.0 mm 0.00 in0.0 mm
12:10 AM 63.5°F17.5°C -39.1°F-39.5°C 1% Calm Calm -- 29.87 in1011.5 mb - 0.00 in0.0 mm 0.00 in0.0 mm
12:00 AM 63.7°F17.6°C -18.8°F-28.2°C 3% Calm Calm -- 29.86 in1011.2 mb - 0.00 in0.0 mm 0.00 in0.0 mm